Time;durP1;ratioP1;P1;durP2;ratioP2;P2;SDS_P1;SDS_P2;PMS_P1;PMS_P2;Temp;Humidity;BMP_temperature;BMP_pressure;BME280_temperature;BME280_humidity;BME280_pressure;Samples;Min_cycle;Max_cycle;Signal;HPM_P1;HPM_P2
2022/11/29 00:00:20;;;;;;;29.70;26.70;;;6.90;99.90;;;;;;5056421;28;20831;-73
2022/11/29 00:02:45;;;;;;;26.70;24.07;;;6.90;99.90;;;;;;5069743;28;20268;-73
2022/11/29 00:05:11;;;;;;;26.43;23.57;;;7.00;99.90;;;;;;5069578;28;20180;-73
2022/11/29 00:07:37;;;;;;;27.27;24.47;;;7.00;99.90;;;;;;5070279;28;20243;-74
2022/11/29 00:10:03;;;;;;;29.63;20.10;;;7.00;99.90;;;;;;5070316;28;20299;-74
2022/11/29 00:12:29;;;;;;;22.07;17.17;;;7.00;99.90;;;;;;5070585;28;20181;-73
2022/11/29 00:14:54;;;;;;;22.97;17.50;;;7.00;99.90;;;;;;5069429;28;20178;-74
2022/11/29 00:17:20;;;;;;;22.53;18.13;;;7.00;99.90;;;;;;5070470;28;20189;-73
2022/11/29 00:19:46;;;;;;;21.10;17.47;;;7.00;99.90;;;;;;5077018;22;20696;-73
2022/11/29 00:22:11;;;;;;;24.93;22.37;;;7.00;99.90;;;;;;5050673;28;20189;-73
2022/11/29 00:24:37;;;;;;;28.77;25.67;;;7.00;99.90;;;;;;5050786;28;20214;-74
2022/11/29 00:27:03;;;;;;;35.23;32.03;;;7.00;99.90;;;;;;5032832;28;20202;-74
2022/11/29 00:29:29;;;;;;;30.13;27.27;;;7.00;99.90;;;;;;5056201;28;20605;-73
2022/11/29 00:31:55;;;;;;;21.93;18.03;;;7.00;99.90;;;;;;5047586;28;20189;-73
2022/11/29 00:34:21;;;;;;;25.00;17.53;;;7.00;99.90;;;;;;5066896;28;20179;-73
2022/11/29 00:36:46;;;;;;;23.27;17.57;;;7.00;99.90;;;;;;5050500;28;20647;-73
2022/11/29 00:39:12;;;;;;;21.73;17.30;;;7.00;99.90;;;;;;5050508;28;20593;-73
2022/11/29 00:41:38;;;;;;;19.17;16.83;;;7.00;99.90;;;;;;5066271;28;20667;-73
2022/11/29 00:44:04;;;;;;;21.57;18.20;;;6.90;99.90;;;;;;5052702;28;20175;-74
2022/11/29 00:46:30;;;;;;;25.27;21.50;;;7.00;99.90;;;;;;5051756;28;20189;-73
2022/11/29 00:48:55;;;;;;;23.87;19.07;;;6.90;99.90;;;;;;5050282;28;20679;-73
2022/11/29 00:51:21;;;;;;;23.50;18.67;;;7.00;99.90;;;;;;5050328;28;20277;-73
2022/11/29 00:53:47;;;;;;;23.47;18.57;;;6.90;99.90;;;;;;5050649;28;20179;-73
2022/11/29 00:56:13;;;;;;;21.77;18.03;;;7.00;99.90;;;;;;5050616;28;20277;-74
2022/11/29 00:58:38;;;;;;;19.10;17.00;;;7.00;99.90;;;;;;5065879;28;20237;-73
2022/11/29 01:01:05;;;;;;;22.33;18.10;;;7.00;99.90;;;;;;5050509;28;20178;-73
2022/11/29 01:03:31;;;;;;;22.33;19.17;;;7.00;99.90;;;;;;5050680;28;20182;-73
2022/11/29 01:06:09;;;;;;;25.23;16.63;;;7.00;99.90;;;;;;5050694;28;20195;-73
2022/11/29 01:08:35;;;;;;;25.90;18.10;;;7.00;99.90;;;;;;5050473;28;20275;-73
2022/11/29 01:11:10;;;;;;;19.93;17.47;;;7.00;99.90;;;;;;5050364;28;20549;-73
2022/11/29 01:13:36;;;;;;;25.53;18.57;;;7.00;99.90;;;;;;5032802;28;20535;-73
2022/11/29 01:16:03;;;;;;;24.73;21.07;;;7.00;99.90;;;;;;5032693;28;20285;-73
2022/11/29 01:18:29;;;;;;;25.23;19.73;;;7.00;99.90;;;;;;5049711;28;20292;-73
2022/11/29 01:21:09;;;;;;;22.50;19.10;;;6.90;99.90;;;;;;5050416;28;20619;-73
2022/11/29 01:23:35;;;;;;;21.57;18.70;;;7.00;99.90;;;;;;5053950;28;20178;-73
2022/11/29 01:26:14;;;;;;;26.37;18.40;;;7.00;99.90;;;;;;5069319;28;20270;-73
2022/11/29 01:28:41;;;;;;;25.73;19.67;;;7.00;99.90;;;;;;5053459;28;20288;-73
2022/11/29 01:31:15;;;;;;;24.53;20.80;;;7.00;99.90;;;;;;5053387;28;20244;-73
2022/11/29 01:33:42;;;;;;;27.70;25.00;;;7.00;99.90;;;;;;5053628;28;20193;-73
2022/11/29 01:36:08;;;;;;;22.33;19.93;;;7.00;99.90;;;;;;5069120;28;20240;-73
2022/11/29 01:38:34;;;;;;;22.57;19.60;;;7.00;99.90;;;;;;5053278;28;20214;-73
2022/11/29 01:41:06;;;;;;;25.03;20.17;;;7.00;99.90;;;;;;5068855;28;20650;-73
2022/11/29 01:43:52;;;;;;;21.20;18.73;;;7.00;99.90;;;;;;5053453;28;20269;-73
2022/11/29 01:46:18;;;;;;;22.60;20.07;;;7.00;99.90;;;;;;5035756;28;20206;-73
2022/11/29 01:48:44;;;;;;;25.57;21.00;;;7.00;99.90;;;;;;5053162;28;20222;-73
2022/11/29 01:51:10;;;;;;;24.47;18.93;;;7.00;99.90;;;;;;5053620;28;20175;-73
2022/11/29 01:53:36;;;;;;;26.10;18.70;;;7.00;99.90;;;;;;5055372;28;20209;-74
2022/11/29 01:56:04;;;;;;;20.17;17.10;;;7.00;99.90;;;;;;5069925;28;20187;-73
2022/11/29 01:58:31;;;;;;;22.10;19.00;;;7.00;99.90;;;;;;5068332;28;20581;-74
2022/11/29 02:00:58;;;;;;;25.17;22.43;;;7.00;99.90;;;;;;5050784;28;20182;-73
2022/11/29 02:03:24;;;;;;;25.97;23.30;;;7.00;99.90;;;;;;5043728;28;20837;-72
2022/11/29 02:05:51;;;;;;;30.20;27.20;;;7.00;99.90;;;;;;5046230;28;20201;-73
2022/11/29 02:08:49;;;;;;;29.97;25.37;;;7.00;99.90;;;;;;5068314;28;20576;-73
2022/11/29 02:11:18;;;;;;;28.27;20.10;;;7.00;99.90;;;;;;4990353;28;20226;-73
2022/11/29 02:14:04;;;;;;;22.67;18.10;;;7.00;99.90;;;;;;5056374;28;20182;-73
2022/11/29 02:16:35;;;;;;;22.73;20.23;;;7.00;99.90;;;;;;5053557;28;20189;-73
2022/11/29 02:19:45;;;;;;;21.17;18.97;;;7.00;99.90;;;;;;5052032;28;20218;-74
2022/11/29 02:22:36;;;;;;;21.17;17.83;;;7.00;99.90;;;;;;5052154;28;20700;-73
2022/11/29 02:25:18;;;;;;;22.70;20.23;;;7.00;99.90;;;;;;5052375;28;20643;-74
2022/11/29 02:27:47;;;;;;;21.77;19.47;;;7.00;99.90;;;;;;5051874;28;20639;-73
2022/11/29 02:30:24;;;;;;;23.70;21.20;;;7.00;99.90;;;;;;5067355;28;20202;-73
2022/11/29 02:33:35;;;;;;;25.80;23.13;;;7.00;99.90;;;;;;5053028;28;20548;-73
2022/11/29 02:36:40;;;;;;;27.93;25.20;;;7.00;99.90;;;;;;5036317;28;20183;-73
2022/11/29 02:39:29;;;;;;;28.30;24.50;;;7.00;99.90;;;;;;5051897;28;20222;-73
2022/11/29 02:42:27;;;;;;;26.93;23.97;;;7.00;99.90;;;;;;5051345;28;20178;-73
2022/11/29 02:44:56;;;;;;;27.07;24.37;;;7.00;99.90;;;;;;5052261;28;20309;-73
2022/11/29 02:47:24;;;;;;;28.43;25.80;;;7.00;99.90;;;;;;5051181;28;20640;-73
2022/11/29 02:50:08;;;;;;;30.50;27.57;;;7.00;99.90;;;;;;5051811;28;20293;-73
2022/11/29 02:52:58;;;;;;;32.20;29.13;;;7.00;99.90;;;;;;5051997;28;20193;-73
2022/11/29 02:55:38;;;;;;;28.93;26.07;;;7.00;99.90;;;;;;5052022;28;20178;-73
2022/11/29 02:58:31;;;;;;;28.77;25.83;;;7.00;99.90;;;;;;5051016;28;20198;-73
2022/11/29 03:01:16;;;;;;;25.93;23.13;;;7.00;99.90;;;;;;5052301;28;20182;-73
2022/11/29 03:03:54;;;;;;;24.27;20.60;;;7.00;99.90;;;;;;5053232;28;20232;-74
2022/11/29 03:06:29;;;;;;;23.43;20.00;;;7.00;99.90;;;;;;5052395;28;20178;-73
2022/11/29 03:09:04;;;;;;;24.00;18.87;;;7.00;99.90;;;;;;5033238;28;20678;-73
2022/11/29 03:11:53;;;;;;;26.10;19.50;;;7.00;99.90;;;;;;5051482;28;20716;-73
2022/11/29 03:14:39;;;;;;;21.37;18.83;;;7.00;99.90;;;;;;5067137;28;20190;-73
2022/11/29 03:17:37;;;;;;;23.40;18.10;;;7.00;99.90;;;;;;5051157;28;20186;-73
2022/11/29 03:20:16;;;;;;;23.00;20.50;;;7.00;99.90;;;;;;5066845;28;20253;-73
2022/11/29 03:22:45;;;;;;;28.20;25.33;;;7.00;99.90;;;;;;5067156;28;20639;-73
2022/11/29 03:25:26;;;;;;;39.27;36.27;;;7.10;99.90;;;;;;5051252;28;20639;-73
2022/11/29 03:28:10;;;;;;;34.00;30.60;;;7.10;99.90;;;;;;5050960;28;20218;-73
2022/11/29 03:30:39;;;;;;;27.70;24.83;;;7.10;99.90;;;;;;5050947;28;20174;-73
2022/11/29 03:33:26;;;;;;;30.30;27.60;;;7.10;99.90;;;;;;5051164;28;20174;-73
2022/11/29 03:36:00;;;;;;;33.60;30.73;;;7.10;99.90;;;;;;5033472;28;20656;-73
2022/11/29 03:38:38;;;;;;;37.10;33.30;;;7.10;99.90;;;;;;5050549;28;20561;-73
2022/11/29 03:41:22;;;;;;;31.10;28.30;;;7.10;99.90;;;;;;5051012;28;20182;-73
2022/11/29 03:43:58;;;;;;;26.27;23.47;;;7.20;99.90;;;;;;5051050;28;20282;-72
2022/11/29 03:46:28;;;;;;;24.57;22.17;;;7.10;99.90;;;;;;5050873;28;20642;-73
2022/11/29 03:49:01;;;;;;;22.73;19.67;;;7.10;99.90;;;;;;5066074;28;20288;-73
2022/11/29 03:51:55;;;;;;;23.37;20.87;;;7.10;99.90;;;;;;5051013;28;20308;-73
2022/11/29 03:54:27;;;;;;;33.27;30.33;;;7.10;99.90;;;;;;5052138;28;20186;-73
2022/11/29 03:56:54;;;;;;;39.40;36.40;;;7.10;99.90;;;;;;5068319;28;20675;-73
2022/11/29 03:59:25;;;;;;;32.47;29.57;;;7.10;99.90;;;;;;5067228;28;20590;-72
2022/11/29 04:02:23;;;;;;;33.23;30.23;;;7.10;99.90;;;;;;5050657;28;20182;-73
2022/11/29 04:04:58;;;;;;;27.33;24.27;;;7.10;99.90;;;;;;4996315;28;20186;-74
2022/11/29 04:07:33;;;;;;;28.97;26.03;;;7.20;99.90;;;;;;5050596;28;20177;-73
2022/11/29 04:10:18;;;;;;;30.90;28.17;;;7.10;99.90;;;;;;5050617;28;20569;-73
2022/11/29 04:13:01;;;;;;;27.80;25.03;;;7.20;99.90;;;;;;5051019;28;20189;-73
2022/11/29 04:15:51;;;;;;;24.70;19.83;;;7.10;99.90;;;;;;5033133;28;20190;-73
2022/11/29 04:18:31;;;;;;;22.73;18.37;;;7.20;99.90;;;;;;5050058;28;20221;-73
2022/11/29 04:21:40;;;;;;;21.80;19.50;;;7.10;99.90;;;;;;5050512;28;20700;-73
2022/11/29 04:24:43;;;;;;;24.43;22.03;;;7.20;99.90;;;;;;5032799;28;20554;-73
2022/11/29 04:27:15;;;;;;;23.73;21.27;;;7.20;99.90;;;;;;5032621;28;20171;-73
2022/11/29 04:29:50;;;;;;;26.13;23.57;;;7.20;99.90;;;;;;5032161;28;20289;-73
2022/11/29 04:32:52;;;;;;;28.87;25.80;;;7.20;99.90;;;;;;5050399;28;20213;-73
2022/11/29 04:35:32;;;;;;;24.93;22.33;;;7.20;99.90;;;;;;5066304;28;20650;-73
2022/11/29 04:38:22;;;;;;;22.40;20.10;;;7.20;99.90;;;;;;5050115;28;20232;-73
2022/11/29 04:41:29;;;;;;;26.43;19.83;;;7.20;99.90;;;;;;5065479;28;20186;-73
2022/11/29 04:44:10;;;;;;;22.23;19.83;;;7.20;99.90;;;;;;4950414;29;20675;-73
2022/11/29 04:46:45;;;;;;;26.83;23.27;;;7.20;99.90;;;;;;4950411;29;20209;-73
2022/11/29 04:49:23;;;;;;;24.00;20.27;;;7.20;99.90;;;;;;5012934;28;20213;-73
2022/11/29 04:52:07;;;;;;;23.93;19.53;;;7.20;99.90;;;;;;5050254;28;20189;-73
2022/11/29 04:54:43;;;;;;;23.07;20.57;;;7.20;99.90;;;;;;5050659;28;20526;-73
2022/11/29 04:57:38;;;;;;;25.30;22.60;;;7.20;99.90;;;;;;5067081;28;20598;-73
2022/11/29 05:00:18;;;;;;;27.03;24.47;;;7.20;99.90;;;;;;5053904;28;20206;-72
2022/11/29 05:02:57;;;;;;;30.73;27.53;;;7.20;99.90;;;;;;5036767;28;20179;-73
2022/11/29 05:05:59;;;;;;;30.30;27.03;;;7.30;99.90;;;;;;5054061;28;20181;-73
2022/11/29 05:08:54;;;;;;;29.63;26.73;;;7.30;99.90;;;;;;5035207;28;20699;-73
2022/11/29 05:11:31;;;;;;;26.93;24.23;;;7.30;99.90;;;;;;5053870;28;20190;-74
2022/11/29 05:14:23;;;;;;;23.00;20.77;;;7.30;99.90;;;;;;5036116;28;20729;-72
2022/11/29 05:17:07;;;;;;;24.43;21.93;;;7.30;99.90;;;;;;5053615;28;20565;-73
2022/11/29 05:19:55;;;;;;;26.53;22.57;;;7.30;99.90;;;;;;5035466;28;20213;-73
2022/11/29 05:22:24;;;;;;;25.03;21.33;;;7.30;99.90;;;;;;5035794;28;20192;-73
2022/11/29 05:25:21;;;;;;;24.10;21.50;;;7.30;99.90;;;;;;5035905;28;20175;-74
2022/11/29 05:28:01;;;;;;;21.47;19.27;;;7.30;99.90;;;;;;5053259;28;20189;-74
2022/11/29 05:30:42;;;;;;;24.00;20.67;;;7.30;99.90;;;;;;5053699;28;20182;-75
2022/11/29 05:33:34;;;;;;;27.20;23.37;;;7.30;99.90;;;;;;5053836;28;20265;-74
2022/11/29 05:36:13;;;;;;;26.07;23.40;;;7.30;99.90;;;;;;5032783;28;20183;-74
2022/11/29 05:38:51;;;;;;;24.97;22.27;;;7.30;99.90;;;;;;5056412;28;20218;-74
2022/11/29 05:41:45;;;;;;;27.13;24.27;;;7.30;99.90;;;;;;5051898;28;20185;-73
2022/11/29 05:44:29;;;;;;;30.57;27.50;;;7.30;99.90;;;;;;5069092;28;20209;-74
2022/11/29 05:47:02;;;;;;;25.97;23.17;;;7.30;99.90;;;;;;5053350;28;20639;-74
2022/11/29 05:49:49;;;;;;;25.93;22.73;;;7.20;99.90;;;;;;5053300;28;20198;-74
2022/11/29 05:52:56;;;;;;;27.47;23.03;;;7.20;99.90;;;;;;5066244;28;20202;-73
2022/11/29 05:55:43;;;;;;;33.57;29.33;;;7.30;99.90;;;;;;5015666;28;20194;-73
2022/11/29 05:58:33;;;;;;;31.57;28.63;;;7.30;99.90;;;;;;5048507;28;20340;-73
2022/11/29 06:01:24;;;;;;;35.87;32.77;;;7.30;99.90;;;;;;5053860;28;20174;-74
2022/11/29 06:04:02;;;;;;;36.93;33.67;;;7.40;99.90;;;;;;5068737;28;20182;-74
2022/11/29 06:06:40;;;;;;;34.93;31.87;;;7.40;99.90;;;;;;5034849;28;20186;-74
2022/11/29 06:09:18;;;;;;;27.20;24.47;;;7.40;99.90;;;;;;5051683;28;20202;-74
2022/11/29 06:11:47;;;;;;;37.53;34.23;;;7.40;99.90;;;;;;5015330;28;20183;-74
2022/11/29 06:14:15;;;;;;;26.93;23.97;;;7.40;99.90;;;;;;5015275;28;20183;-74
2022/11/29 06:17:07;;;;;;;28.50;25.47;;;7.40;99.90;;;;;;5032709;28;20193;-72
2022/11/29 06:19:55;;;;;;;28.67;22.97;;;7.40;99.90;;;;;;5074023;22;20241;-73
2022/11/29 06:22:32;;;;;;;24.90;22.33;;;7.40;99.90;;;;;;5071370;28;20177;-71
2022/11/29 06:25:16;;;;;;;25.07;22.67;;;7.40;99.90;;;;;;5072584;28;20189;-71
2022/11/29 06:27:56;;;;;;;24.60;22.03;;;7.40;99.90;;;;;;5065043;28;20182;-67
2022/11/29 06:30:51;;;;;;;24.53;22.13;;;7.30;99.90;;;;;;5065087;28;20198;-68
2022/11/29 06:33:30;;;;;;;36.63;32.93;;;7.40;99.90;;;;;;5059382;28;20186;-67
2022/11/29 06:36:39;;;;;;;39.53;35.47;;;7.40;99.90;;;;;;5052291;28;20202;-67
2022/11/29 06:39:07;;;;;;;40.23;36.60;;;7.40;99.90;;;;;;4989385;28;20216;-71
2022/11/29 06:41:34;;;;;;;33.57;30.30;;;7.40;99.90;;;;;;4989445;28;20242;-73
2022/11/29 06:44:00;;;;;;;37.33;33.37;;;7.40;99.90;;;;;;5021483;28;20690;-71
2022/11/29 06:46:59;;;;;;;40.67;36.47;;;7.40;99.90;;;;;;5050357;28;20182;-71
2022/11/29 06:49:35;;;;;;;39.67;36.27;;;7.40;99.90;;;;;;5052724;28;20197;-72
2022/11/29 06:52:38;;;;;;;38.67;34.93;;;7.40;99.90;;;;;;5061464;28;20217;-69
2022/11/29 06:55:48;;;;;;;39.93;36.27;;;7.40;99.90;;;;;;5057356;28;20182;-69
2022/11/29 06:59:04;;;;;;;36.30;33.07;;;7.50;99.90;;;;;;5034024;28;20313;-69
2022/11/29 07:01:38;;;;;;;39.47;35.60;;;7.50;99.90;;;;;;5058971;28;20198;-68
2022/11/29 07:04:16;;;;;;;42.13;38.33;;;7.50;99.90;;;;;;5071281;28;20231;-69
2022/11/29 07:06:42;;;;;;;45.60;41.33;;;7.50;99.90;;;;;;5071728;28;20178;-68
2022/11/29 07:09:17;;;;;;;42.80;39.07;;;7.50;99.90;;;;;;5071288;28;20575;-69
2022/11/29 07:11:45;;;;;;;40.90;37.27;;;7.50;99.90;;;;;;5069949;28;20601;-69
2022/11/29 07:14:11;;;;;;;32.50;29.00;;;7.50;99.90;;;;;;5070989;28;20634;-69
2022/11/29 07:17:05;;;;;;;32.53;28.43;;;7.50;99.90;;;;;;5071200;28;20185;-70
2022/11/29 07:19:49;;;;;;;37.63;30.23;;;7.60;99.90;;;;;;5070241;28;20267;-69
2022/11/29 07:22:30;;;;;;;45.57;41.50;;;7.60;99.90;;;;;;5069914;28;20197;-69
2022/11/29 07:25:33;;;;;;;35.33;28.60;;;7.60;99.90;;;;;;5071237;28;20289;-69
2022/11/29 07:28:41;;;;;;;27.10;22.13;;;7.60;99.90;;;;;;5068987;28;20181;-67
2022/11/29 07:31:21;;;;;;;36.43;32.97;;;7.60;99.90;;;;;;5070874;28;20180;-66
2022/11/29 07:34:12;;;;;;;68.27;62.53;;;7.50;99.90;;;;;;5071191;28;20547;-67
2022/11/29 07:37:09;;;;;;;65.00;59.83;;;7.50;99.90;;;;;;5058307;28;20178;-70
2022/11/29 07:39:52;;;;;;;73.67;67.90;;;7.60;99.90;;;;;;5068538;28;20220;-68
2022/11/29 07:42:30;;;;;;;69.87;63.60;;;7.60;99.90;;;;;;5070300;28;20559;-68
2022/11/29 07:45:30;;;;;;;70.27;64.57;;;7.60;99.90;;;;;;5072584;28;20177;-69
2022/11/29 07:47:56;;;;;;;34.17;20.00;;;7.70;99.90;;;;;;5071155;28;20678;-70
2022/11/29 07:50:23;;;;;;;29.03;19.23;;;7.70;99.90;;;;;;5070080;28;20215;-70
2022/11/29 07:52:49;;;;;;;33.27;20.53;;;7.70;99.90;;;;;;5071209;28;20174;-70
2022/11/29 07:55:18;;;;;;;35.03;21.10;;;7.70;99.90;;;;;;5071238;28;20227;-70
2022/11/29 07:57:43;;;;;;;30.40;20.90;;;7.80;99.90;;;;;;5069672;28;20673;-70
2022/11/29 08:00:10;;;;;;;33.27;26.33;;;7.80;99.90;;;;;;5071192;28;20245;-69
2022/11/29 08:02:36;;;;;;;37.57;33.67;;;7.80;99.90;;;;;;5071506;28;20268;-69
2022/11/29 08:05:02;;;;;;;39.33;35.60;;;7.90;99.90;;;;;;5071332;28;20726;-72
2022/11/29 08:07:29;;;;;;;37.20;30.20;;;7.90;99.90;;;;;;5069662;28;20558;-71
2022/11/29 08:09:55;;;;;;;36.50;31.13;;;7.90;99.90;;;;;;5069873;28;20295;-70
2022/11/29 08:12:21;;;;;;;42.37;37.13;;;8.00;99.90;;;;;;5070181;28;20181;-71
2022/11/29 08:14:47;;;;;;;34.13;30.77;;;8.00;99.90;;;;;;5071184;28;20182;-70
2022/11/29 08:17:12;;;;;;;35.67;32.40;;;8.00;99.90;;;;;;5070427;28;20189;-69
2022/11/29 08:19:38;;;;;;;36.00;32.23;;;8.00;99.90;;;;;;5069299;28;20213;-70
2022/11/29 08:22:04;;;;;;;41.33;37.70;;;8.10;99.90;;;;;;5071361;28;20174;-70
2022/11/29 08:24:29;;;;;;;36.03;32.87;;;8.00;99.90;;;;;;5071945;28;20181;-69
2022/11/29 08:26:55;;;;;;;54.13;50.33;;;8.10;99.90;;;;;;5069448;28;20227;-69
2022/11/29 08:29:22;;;;;;;42.97;39.47;;;8.10;99.90;;;;;;5058414;28;20262;-70
2022/11/29 08:31:52;;;;;;;41.20;37.77;;;8.10;99.90;;;;;;5073549;28;20192;-70
2022/11/29 08:34:22;;;;;;;31.97;29.43;;;8.20;99.90;;;;;;5074788;28;20186;-70
2022/11/29 08:36:49;;;;;;;28.90;26.47;;;8.20;99.90;;;;;;5073569;28;20208;-69
2022/11/29 08:39:15;;;;;;;31.07;28.50;;;8.20;99.90;;;;;;5071957;28;20221;-70
2022/11/29 08:41:41;;;;;;;29.87;27.30;;;8.20;99.90;;;;;;5074423;28;20658;-71
2022/11/29 08:44:07;;;;;;;29.80;27.00;;;8.20;99.90;;;;;;5074676;28;20307;-70
2022/11/29 08:49:18;;;;;;;29.07;26.40;;;8.30;99.90;;;;;;5074365;28;20258;-70
2022/11/29 08:51:44;;;;;;;34.47;31.37;;;8.30;99.90;;;;;;5074720;28;20183;-70
2022/11/29 08:54:09;;;;;;;33.53;30.93;;;8.40;99.90;;;;;;5077510;28;20209;-71
2022/11/29 08:56:36;;;;;;;35.30;32.60;;;8.40;99.90;;;;;;5072866;28;20194;-71
2022/11/29 08:59:05;;;;;;;30.43;28.07;;;8.40;99.90;;;;;;5073190;28;20648;-70
2022/11/29 09:01:31;;;;;;;32.87;30.00;;;8.40;99.90;;;;;;5074163;28;20230;-69
2022/11/29 09:04:03;;;;;;;33.43;30.43;;;8.40;99.90;;;;;;5074085;28;20181;-71
2022/11/29 09:06:35;;;;;;;25.70;23.03;;;8.40;99.90;;;;;;5072756;28;20205;-70
2022/11/29 09:09:01;;;;;;;18.97;16.33;;;8.40;99.90;;;;;;5073780;28;20294;-70
2022/11/29 09:11:29;;;;;;;17.03;15.27;;;8.40;99.90;;;;;;5074347;28;20209;-71
2022/11/29 09:13:58;;;;;;;18.57;16.67;;;8.50;99.90;;;;;;5072720;28;20189;-70
2022/11/29 09:16:26;;;;;;;18.10;16.30;;;8.50;99.90;;;;;;5073148;28;20181;-70
2022/11/29 09:18:54;;;;;;;22.37;17.13;;;8.50;99.90;;;;;;5073300;28;20216;-71
2022/11/29 09:21:23;;;;;;;28.47;25.70;;;8.60;99.90;;;;;;5073909;28;20181;-70
2022/11/29 09:23:56;;;;;;;30.00;27.50;;;8.60;99.90;;;;;;5073868;28;20182;-70
2022/11/29 09:26:22;;;;;;;26.00;23.57;;;8.70;99.90;;;;;;5072798;28;20174;-68
2022/11/29 09:28:48;;;;;;;15.43;13.80;;;8.80;99.90;;;;;;5072915;28;20228;-68
2022/11/29 09:31:15;;;;;;;16.50;14.80;;;8.80;99.90;;;;;;5072684;28;20181;-68
2022/11/29 09:33:41;;;;;;;20.07;18.27;;;8.80;99.90;;;;;;5073950;28;20224;-69
2022/11/29 09:36:09;;;;;;;17.23;15.33;;;8.80;99.90;;;;;;5073167;28;20181;-69
2022/11/29 09:38:35;;;;;;;21.97;19.77;;;8.90;99.90;;;;;;5071693;28;20561;-70
2022/11/29 09:41:17;;;;;;;19.80;18.00;;;9.00;99.90;;;;;;5073805;28;20554;-69
2022/11/29 09:44:08;;;;;;;17.37;15.67;;;9.00;99.90;;;;;;5057658;28;20189;-69
2022/11/29 09:46:43;;;;;;;15.57;13.87;;;9.00;99.90;;;;;;5069441;28;20173;-70
2022/11/29 09:49:33;;;;;;;14.67;13.13;;;9.10;99.90;;;;;;5072795;28;20270;-69
2022/11/29 09:52:19;;;;;;;13.00;11.60;;;9.20;99.90;;;;;;5054892;28;20278;-70
2022/11/29 09:54:53;;;;;;;14.13;12.57;;;9.20;99.90;;;;;;5053684;28;20581;-70
2022/11/29 09:57:22;;;;;;;17.63;15.87;;;9.20;99.90;;;;;;5057027;28;20213;-69
2022/11/29 09:59:56;;;;;;;21.57;19.87;;;9.20;99.90;;;;;;5072696;28;20212;-69
2022/11/29 10:02:46;;;;;;;23.90;22.00;;;9.20;99.90;;;;;;5073546;28;20185;-70
2022/11/29 10:05:27;;;;;;;33.93;31.23;;;9.20;99.90;;;;;;5072927;28;20208;-69
2022/11/29 10:08:26;;;;;;;24.93;23.00;;;9.20;99.90;;;;;;5072436;28;20546;-70
2022/11/29 10:11:11;;;;;;;17.83;16.17;;;9.30;99.90;;;;;;5073131;28;20204;-69
2022/11/29 10:13:39;;;;;;;15.83;14.33;;;9.30;99.90;;;;;;5073259;28;20702;-70
2022/11/29 10:16:43;;;;;;;13.40;12.30;;;9.30;99.90;;;;;;5072517;28;20265;-69
2022/11/29 10:19:32;;;;;;;12.77;11.47;;;9.30;99.90;;;;;;5058999;28;20300;-69
2022/11/29 10:22:33;;;;;;;13.83;12.43;;;9.30;99.90;;;;;;5072579;28;20212;-69
2022/11/29 10:25:01;;;;;;;14.87;13.77;;;9.30;99.90;;;;;;5069506;28;20333;-69
2022/11/29 10:27:28;;;;;;;15.57;14.27;;;9.30;99.90;;;;;;5072298;28;20184;-70
2022/11/29 10:29:55;;;;;;;14.77;13.53;;;9.20;99.90;;;;;;5072998;28;20197;-72
2022/11/29 10:32:24;;;;;;;15.07;13.67;;;9.30;99.90;;;;;;5072889;28;20827;-69
2022/11/29 10:34:50;;;;;;;14.20;13.00;;;9.20;99.90;;;;;;5072492;28;20538;-69
2022/11/29 10:37:20;;;;;;;13.23;11.97;;;9.20;99.90;;;;;;5070725;28;20177;-70
2022/11/29 10:39:52;;;;;;;10.90;10.03;;;9.20;99.90;;;;;;5072355;28;20685;-70
2022/11/29 10:45:14;;;;;;;11.57;10.37;;;9.20;99.90;;;;;;5071900;28;20638;-69
2022/11/29 10:47:40;;;;;;;11.57;10.57;;;9.20;99.90;;;;;;5068287;28;20178;-69
2022/11/29 10:50:06;;;;;;;11.23;10.23;;;9.10;99.90;;;;;;5052292;28;20206;-70
2022/11/29 10:52:32;;;;;;;12.10;10.77;;;9.10;99.90;;;;;;5054176;28;20270;-70
2022/11/29 10:54:58;;;;;;;11.70;10.50;;;9.20;99.90;;;;;;5068258;28;20666;-69
2022/11/29 10:57:24;;;;;;;13.10;11.77;;;9.20;99.90;;;;;;5071993;28;20276;-69
2022/11/29 11:00:03;;;;;;;13.20;11.80;;;9.30;99.90;;;;;;5071607;28;20305;-69
2022/11/29 11:02:30;;;;;;;17.33;15.43;;;9.30;99.90;;;;;;5071905;28;20180;-70
2022/11/29 11:04:57;;;;;;;14.87;13.47;;;9.30;99.90;;;;;;5071047;28;20200;-70
2022/11/29 11:07:34;;;;;;;15.77;14.20;;;9.30;99.90;;;;;;5057711;28;20535;-69
2022/11/29 11:10:03;;;;;;;14.83;13.43;;;9.40;99.90;;;;;;5052748;28;20248;-70
2022/11/29 11:12:32;;;;;;;14.73;13.23;;;9.40;99.90;;;;;;5050650;28;20185;-69
2022/11/29 11:15:24;;;;;;;15.80;12.83;;;9.50;99.90;;;;;;5060654;28;20192;-70
2022/11/29 11:17:59;;;;;;;13.67;12.23;;;9.50;99.90;;;;;;5063442;28;20617;-69
2022/11/29 11:20:27;;;;;;;12.43;11.13;;;9.50;99.90;;;;;;5071744;28;20758;-69
2022/11/29 11:23:21;;;;;;;13.37;12.00;;;9.40;99.90;;;;;;5071581;28;20177;-69
2022/11/29 11:25:50;;;;;;;13.67;12.27;;;9.30;99.90;;;;;;5071698;28;20264;-68
2022/11/29 11:28:24;;;;;;;15.03;12.63;;;9.20;99.90;;;;;;5071042;28;20177;-69
2022/11/29 11:31:04;;;;;;;14.07;12.67;;;9.10;99.90;;;;;;5070542;28;20250;-69
2022/11/29 11:33:33;;;;;;;14.47;12.93;;;9.10;99.90;;;;;;5071654;28;20272;-68
2022/11/29 11:36:05;;;;;;;17.57;15.77;;;9.10;99.90;;;;;;5071402;28;20177;-68
2022/11/29 11:38:39;;;;;;;18.53;16.67;;;9.10;99.90;;;;;;5069525;28;20201;-69
2022/11/29 11:41:17;;;;;;;20.17;18.37;;;9.00;99.90;;;;;;5071437;28;20566;-69
2022/11/29 11:43:58;;;;;;;17.47;15.77;;;8.90;99.90;;;;;;5071357;28;20177;-69
2022/11/29 11:46:48;;;;;;;14.47;13.13;;;8.90;99.90;;;;;;5071346;28;20181;-69
2022/11/29 11:49:33;;;;;;;17.30;15.50;;;8.90;99.90;;;;;;5051228;28;20220;-68
2022/11/29 11:52:00;;;;;;;16.07;14.43;;;8.90;99.90;;;;;;5050095;28;20183;-69
2022/11/29 11:54:27;;;;;;;14.40;12.90;;;8.90;99.90;;;;;;5050630;28;20206;-69
2022/11/29 11:56:53;;;;;;;16.10;14.50;;;8.90;99.90;;;;;;5054027;28;20173;-70
2022/11/29 11:59:23;;;;;;;18.47;16.67;;;8.90;99.90;;;;;;5071734;28;20205;-70
2022/11/29 12:01:49;;;;;;;15.07;13.70;;;8.90;99.90;;;;;;5073412;28;20184;-69
2022/11/29 12:04:26;;;;;;;16.97;15.27;;;9.00;99.90;;;;;;5066159;28;20581;-69
2022/11/29 12:06:56;;;;;;;21.23;19.33;;;8.90;99.90;;;;;;5052193;28;20173;-70
2022/11/29 12:09:26;;;;;;;19.67;18.00;;;8.90;99.90;;;;;;5070347;28;20863;-69
2022/11/29 12:12:10;;;;;;;18.57;16.77;;;9.00;99.90;;;;;;5070200;28;20211;-69
2022/11/29 12:14:57;;;;;;;16.07;14.40;;;9.00;99.90;;;;;;5070088;28;20178;-68
2022/11/29 12:17:47;;;;;;;16.20;14.60;;;9.10;99.90;;;;;;5070681;28;20173;-69
2022/11/29 12:20:41;;;;;;;16.17;14.83;;;9.20;99.90;;;;;;5090354;22;20279;-72
2022/11/29 12:23:13;;;;;;;19.90;18.23;;;9.30;99.90;;;;;;5071065;28;20203;-72
2022/11/29 12:25:55;;;;;;;21.43;19.70;;;9.20;99.90;;;;;;5069895;28;20180;-72
2022/11/29 12:28:25;;;;;;;18.83;17.43;;;9.20;99.90;;;;;;5100328;28;20721;-76
2022/11/29 12:31:09;;;;;;;16.63;15.33;;;9.30;99.90;;;;;;5090323;28;20223;-77
2022/11/29 12:33:44;;;;;;;15.13;13.73;;;9.20;99.90;;;;;;5092227;28;20196;-76
2022/11/29 12:36:22;;;;;;;15.53;14.13;;;9.20;99.90;;;;;;5100951;28;20203;-74
2022/11/29 12:39:20;;;;;;;16.33;15.00;;;9.10;99.90;;;;;;5091025;28;20218;-75
2022/11/29 12:42:13;;;;;;;20.43;18.80;;;9.10;99.90;;;;;;5001312;28;20189;-72
2022/11/29 12:45:18;;;;;;;13.33;12.17;;;8.90;99.90;;;;;;5070272;28;20216;-74
2022/11/29 12:48:07;;;;;;;13.67;12.20;;;8.90;99.90;;;;;;5037154;28;20193;-74
2022/11/29 12:50:58;;;;;;;14.60;13.20;;;8.90;99.90;;;;;;5091195;28;20198;-74
2022/11/29 12:53:44;;;;;;;15.90;14.30;;;8.90;99.90;;;;;;5091053;28;20177;-75
2022/11/29 12:56:38;;;;;;;14.30;12.77;;;8.90;99.90;;;;;;5090992;28;20307;-75
2022/11/29 12:59:19;;;;;;;13.23;12.13;;;8.90;99.90;;;;;;5069818;28;20209;-76
2022/11/29 13:01:56;;;;;;;13.37;12.10;;;9.00;99.90;;;;;;5068302;28;20190;-75
2022/11/29 13:04:25;;;;;;;12.13;11.13;;;8.90;99.90;;;;;;5070568;28;20699;-76
2022/11/29 13:07:26;;;;;;;13.80;12.57;;;8.90;99.90;;;;;;5070506;28;20178;-75
2022/11/29 13:09:55;;;;;;;13.93;12.73;;;8.80;99.90;;;;;;5002468;28;20209;-75
2022/11/29 13:13:00;;;;;;;20.10;18.47;;;8.80;99.90;;;;;;5070294;28;20220;-75
2022/11/29 13:15:57;;;;;;;24.63;23.00;;;8.80;99.90;;;;;;5067548;28;20193;-76
2022/11/29 13:18:29;;;;;;;26.90;24.97;;;8.80;99.90;;;;;;5040472;28;20221;-76
2022/11/29 13:21:05;;;;;;;29.43;27.53;;;8.80;99.90;;;;;;5061317;28;20296;-76
2022/11/29 13:23:48;;;;;;;21.20;19.60;;;8.70;99.90;;;;;;5072803;28;20181;-75
2022/11/29 13:26:15;;;;;;;21.13;19.43;;;8.70;99.90;;;;;;5074172;28;20254;-75
2022/11/29 13:28:43;;;;;;;19.93;17.97;;;8.70;99.90;;;;;;5072888;28;20184;-75
2022/11/29 13:31:15;;;;;;;15.10;13.60;;;8.70;99.90;;;;;;5073099;28;20189;-75